createdAt,value
2022-10-25T00:00:40.857Z,9.05
2022-10-25T00:01:40.968Z,9.065
2022-10-25T00:02:40.981Z,9.065
2022-10-25T00:03:40.928Z,9.065
2022-10-25T00:04:40.961Z,9.08
2022-10-25T00:05:40.984Z,9.047
2022-10-25T00:06:41.016Z,9.047
2022-10-25T00:07:41.048Z,9.047
2022-10-25T00:08:41.076Z,8.97
2022-10-25T00:09:41.106Z,8.97
2022-10-25T00:10:41.145Z,8.985
2022-10-25T00:11:41.177Z,8.985
2022-10-25T00:12:41.208Z,8.985
2022-10-25T00:13:41.239Z,9
2022-10-25T00:14:41.268Z,9.019
2022-10-25T00:15:41.302Z,9.034
2022-10-25T00:16:41.329Z,9.02
2022-10-25T00:17:41.364Z,9.035
2022-10-25T00:18:41.393Z,9.035
2022-10-25T00:19:41.436Z,9.05
2022-10-25T00:20:41.471Z,9.064
2022-10-25T00:21:41.543Z,9.064
2022-10-25T00:22:41.534Z,9.079
2022-10-25T00:23:41.563Z,9.079
2022-10-25T00:24:41.591Z,9.079
2022-10-25T00:25:41.618Z,9.094
2022-10-25T00:26:41.658Z,9.075
2022-10-25T00:27:41.694Z,9.09
2022-10-25T00:28:41.730Z,9.09
2022-10-25T00:29:41.759Z,9.032
2022-10-25T00:30:41.790Z,9.032
2022-10-25T00:31:41.812Z,8.999
2022-10-25T00:32:41.840Z,8.999
2022-10-25T00:33:41.866Z,9.003
2022-10-25T00:34:41.899Z,9.003
2022-10-25T00:35:41.928Z,9.003
2022-10-25T00:36:41.963Z,9.003
2022-10-25T00:37:42.047Z,9.003
2022-10-25T00:38:42.018Z,9.003
2022-10-25T00:39:42.051Z,9.003
2022-10-25T00:40:42.082Z,8.96
2022-10-25T00:41:42.108Z,8.96
2022-10-25T00:42:42.134Z,8.96
2022-10-25T00:43:42.162Z,8.96
2022-10-25T00:44:42.196Z,8.96
2022-10-25T00:45:42.230Z,8.94
2022-10-25T00:46:42.264Z,8.883
2022-10-25T00:47:42.292Z,8.883
2022-10-25T00:48:42.325Z,8.868
2022-10-25T00:49:42.364Z,8.835
2022-10-25T00:50:42.393Z,8.849
2022-10-25T00:51:42.434Z,8.849
2022-10-25T00:52:42.461Z,8.835
2022-10-25T00:53:42.497Z,8.821
2022-10-25T00:54:42.530Z,8.835
2022-10-25T00:55:42.570Z,8.835
2022-10-25T00:56:42.594Z,8.835
2022-10-25T00:57:42.621Z,8.835
2022-10-25T00:58:42.652Z,8.85
2022-10-25T00:59:42.701Z,8.927
2022-10-25T01:00:42.715Z,8.927
2022-10-25T01:01:42.864Z,8.927
2022-10-25T01:02:42.861Z,8.927
2022-10-25T01:03:42.804Z,8.927
2022-10-25T01:04:42.837Z,8.927
2022-10-25T01:05:42.873Z,8.97
2022-10-25T01:06:42.906Z,8.985
2022-10-25T01:07:42.984Z,8.985
2022-10-25T01:08:42.968Z,9.014
2022-10-25T01:09:43.002Z,9.057
2022-10-25T01:10:43.036Z,9.057
2022-10-25T01:11:43.059Z,9.057
2022-10-25T01:12:43.355Z,9.062
2022-10-25T01:13:43.117Z,9.081
2022-10-25T01:14:43.139Z,9.12
2022-10-25T01:15:43.164Z,9.139
2022-10-25T01:16:43.204Z,9.177
2022-10-25T01:17:43.269Z,9.177
2022-10-25T01:18:43.265Z,9.201
2022-10-25T01:19:43.291Z,9.205
2022-10-25T01:20:43.329Z,9.191
2022-10-25T01:21:43.369Z,9.248
2022-10-25T01:22:43.470Z,9.234
2022-10-25T01:23:43.423Z,9.223
2022-10-25T01:24:43.453Z,9.208
2022-10-25T01:25:43.485Z,9.194
2022-10-25T01:26:43.515Z,9.193
2022-10-25T01:27:43.573Z,9.222
2022-10-25T01:28:43.588Z,9.192
2022-10-25T01:29:43.624Z,9.177
2022-10-25T01:30:43.656Z,9.206
2022-10-25T01:31:43.684Z,9.191
2022-10-25T01:32:43.901Z,9.161
2022-10-25T01:33:43.748Z,9.146
2022-10-25T01:34:43.782Z,9.146
2022-10-25T01:35:43.814Z,9.15
2022-10-25T01:36:43.843Z,9.15
2022-10-25T01:37:43.999Z,9.135
2022-10-25T01:38:43.912Z,9.14
2022-10-25T01:39:43.937Z,9.125
2022-10-25T01:40:43.968Z,9.163
2022-10-25T01:41:43.999Z,9.196
2022-10-25T01:42:44.031Z,9.225
2022-10-25T01:43:44.055Z,9.225
2022-10-25T01:44:44.092Z,9.21
2022-10-25T01:45:44.121Z,9.21
2022-10-25T01:46:44.157Z,9.21
2022-10-25T01:47:44.406Z,9.21
2022-10-25T01:48:44.227Z,9.21
2022-10-25T01:49:44.259Z,9.195
2022-10-25T01:50:44.295Z,9.199
2022-10-25T01:51:44.327Z,9.199
2022-10-25T01:52:44.411Z,9.184
2022-10-25T01:53:44.395Z,9.169
2022-10-25T01:54:44.422Z,9.153
2022-10-25T01:55:44.453Z,9.153
2022-10-25T01:56:44.491Z,9.177
2022-10-25T01:57:44.758Z,9.142
2022-10-25T01:58:44.554Z,9.142
2022-10-25T01:59:44.585Z,9.142
2022-10-25T02:00:44.664Z,9.142
2022-10-25T02:02:45.057Z,9.127
2022-10-25T02:03:44.720Z,9.146
2022-10-25T02:04:44.750Z,9.146
2022-10-25T02:05:44.776Z,9.146
2022-10-25T02:06:44.808Z,9.131
2022-10-25T02:07:44.845Z,9.101
2022-10-25T02:08:44.872Z,9.124
2022-10-25T02:09:44.903Z,9.143
2022-10-25T02:10:44.939Z,9.128
2022-10-25T02:11:44.970Z,9.147
2022-10-25T02:12:45.303Z,9.132
2022-10-25T02:13:45.021Z,9.132
2022-10-25T02:14:45.052Z,9.132
2022-10-25T02:15:45.075Z,9.116
2022-10-25T02:16:45.110Z,9.101
2022-10-25T02:17:45.136Z,9.086
2022-10-25T02:18:45.166Z,9.101
2022-10-25T02:19:45.192Z,9.101
2022-10-25T02:20:46.776Z,9.206
2022-10-25T02:21:45.266Z,9.176
2022-10-25T02:22:45.759Z,9.145
2022-10-25T02:23:45.314Z,9.145
2022-10-25T02:24:45.349Z,9.115
2022-10-25T02:25:45.378Z,9.099
2022-10-25T02:26:45.477Z,9.099
2022-10-25T02:27:45.747Z,9.099
2022-10-25T02:28:45.474Z,9.084
2022-10-25T02:29:45.507Z,9.069
2022-10-25T02:30:45.548Z,9.053
2022-10-25T02:31:45.572Z,9.038
2022-10-25T02:32:45.606Z,9.038
2022-10-25T02:33:45.644Z,9.038
2022-10-25T02:34:45.678Z,9.038
2022-10-25T02:35:45.710Z,9.007
2022-10-25T02:36:45.744Z,8.992
2022-10-25T02:37:46.091Z,8.992
2022-10-25T02:38:45.810Z,9.007
2022-10-25T02:39:45.846Z,9.007
2022-10-25T02:40:45.878Z,9.007
2022-10-25T02:41:45.908Z,9.007
2022-10-25T02:42:45.947Z,9.007
2022-10-25T02:43:45.971Z,9.007
2022-10-25T02:44:45.998Z,8.992
2022-10-25T02:45:46.072Z,8.976
2022-10-25T02:46:46.054Z,8.961
2022-10-25T02:47:46.341Z,8.961
2022-10-25T02:48:46.118Z,8.961
2022-10-25T02:49:46.152Z,8.961
2022-10-25T02:50:46.189Z,8.976
2022-10-25T02:51:46.248Z,8.976
2022-10-25T02:52:46.678Z,8.992
2022-10-25T02:53:46.286Z,8.979
2022-10-25T02:54:46.313Z,8.948
2022-10-25T02:55:46.346Z,8.976
2022-10-25T02:56:46.379Z,8.963
2022-10-25T02:57:46.419Z,8.963
2022-10-25T02:58:46.444Z,8.963
2022-10-25T02:59:46.473Z,8.948
2022-10-25T03:00:46.558Z,8.932
2022-10-25T03:01:46.571Z,8.917
2022-10-25T03:02:46.987Z,8.917
2022-10-25T03:03:46.601Z,8.917
2022-10-25T03:04:46.624Z,8.901
2022-10-25T03:05:46.651Z,8.901
2022-10-25T03:06:46.684Z,8.886
2022-10-25T03:07:46.717Z,8.93
2022-10-25T03:08:46.745Z,8.955
2022-10-25T03:09:46.776Z,8.955
2022-10-25T03:10:46.809Z,8.962
2022-10-25T03:11:46.842Z,8.928
2022-10-25T03:12:47.094Z,8.912
2022-10-25T03:13:46.906Z,8.925
2022-10-25T03:14:46.934Z,8.938
2022-10-25T03:15:46.965Z,8.894
2022-10-25T03:17:47.312Z,8.848
2022-10-25T03:18:47.064Z,8.832
2022-10-25T03:19:47.091Z,8.832
2022-10-25T03:20:47.117Z,8.845
2022-10-25T03:21:47.149Z,8.829
2022-10-25T03:22:47.175Z,8.814
2022-10-25T03:23:47.211Z,8.782
2022-10-25T03:24:47.244Z,8.767
2022-10-25T03:25:48.773Z,8.767
2022-10-25T03:26:47.293Z,8.782
2022-10-25T03:27:47.632Z,8.751
2022-10-25T03:28:47.362Z,8.719
2022-10-25T03:29:47.393Z,8.704
2022-10-25T03:30:47.413Z,8.719
2022-10-25T03:31:47.448Z,8.688
2022-10-25T03:32:47.479Z,8.688
2022-10-25T03:33:47.511Z,8.672
2022-10-25T03:34:47.535Z,8.701
2022-10-25T03:35:47.572Z,8.72
2022-10-25T03:36:47.611Z,8.704
2022-10-25T03:37:48.070Z,8.688
2022-10-25T03:38:47.674Z,8.688
2022-10-25T03:39:47.700Z,8.672
2022-10-25T03:40:47.733Z,8.641
2022-10-25T03:41:47.770Z,8.656
2022-10-25T03:42:47.795Z,8.672
2022-10-25T03:43:47.827Z,8.669
2022-10-25T03:44:47.859Z,8.641
2022-10-25T03:45:47.886Z,8.625
2022-10-25T03:46:47.917Z,8.593
2022-10-25T03:47:48.230Z,8.641
2022-10-25T03:48:47.984Z,8.609
2022-10-25T03:49:48.015Z,8.577
2022-10-25T03:50:48.048Z,8.577
2022-10-25T03:51:51.147Z,8.593
2022-10-25T03:52:48.114Z,8.593
2022-10-25T03:53:48.142Z,8.609
2022-10-25T03:54:48.166Z,8.641
2022-10-25T03:55:48.204Z,8.641
2022-10-25T03:56:48.228Z,8.641
2022-10-25T03:57:48.766Z,8.625
2022-10-25T03:58:48.299Z,8.593
2022-10-25T03:59:48.331Z,8.593
2022-10-25T04:00:48.439Z,8.593
2022-10-25T04:01:48.471Z,8.577
2022-10-25T04:02:48.490Z,8.529
2022-10-25T04:03:48.473Z,8.545
2022-10-25T04:04:48.506Z,8.517
2022-10-25T04:05:48.528Z,8.469
2022-10-25T04:06:48.564Z,8.494
2022-10-25T04:07:49.114Z,8.51
2022-10-25T04:08:48.628Z,8.526
2022-10-25T04:09:48.652Z,8.526
2022-10-25T04:10:48.693Z,8.542
2022-10-25T04:11:48.722Z,8.561
2022-10-25T04:12:48.796Z,8.542
2022-10-25T04:13:48.787Z,8.577
2022-10-25T04:14:48.823Z,8.59
2022-10-25T04:15:48.854Z,8.558
2022-10-25T04:16:48.881Z,8.558
2022-10-25T04:17:49.173Z,8.574
2022-10-25T04:18:48.941Z,8.558
2022-10-25T04:19:48.970Z,8.558
2022-10-25T04:20:48.998Z,8.59
2022-10-25T04:21:49.033Z,8.59
2022-10-25T04:22:49.064Z,8.558
2022-10-25T04:23:49.100Z,8.59
2022-10-25T04:24:49.132Z,8.606
2022-10-25T04:25:49.167Z,8.59
2022-10-25T04:26:49.201Z,8.606
2022-10-25T04:27:49.590Z,8.59
2022-10-25T04:28:49.255Z,8.517
2022-10-25T04:29:49.294Z,8.517
2022-10-25T04:30:49.329Z,8.517
2022-10-25T04:31:49.353Z,8.501
2022-10-25T04:32:49.801Z,8.485
2022-10-25T04:33:49.416Z,8.482
2022-10-25T04:34:49.448Z,8.514
2022-10-25T04:35:49.474Z,8.564
2022-10-25T04:36:49.511Z,8.561
2022-10-25T04:37:49.531Z,8.536
2022-10-25T04:38:49.559Z,8.552
2022-10-25T04:39:49.597Z,8.586
2022-10-25T04:40:49.623Z,8.602
2022-10-25T04:41:49.651Z,8.618
2022-10-25T04:42:49.839Z,8.634
2022-10-25T04:43:49.721Z,8.649
2022-10-25T04:44:49.751Z,8.681
2022-10-25T04:45:49.783Z,8.712
2022-10-25T04:46:49.815Z,8.662
2022-10-25T04:47:49.851Z,8.62
2022-10-25T04:48:49.882Z,8.62
2022-10-25T04:49:49.916Z,8.652
2022-10-25T04:50:49.947Z,8.683
2022-10-25T04:52:50.237Z,8.664
2022-10-25T04:53:50.036Z,8.664
2022-10-25T04:54:50.063Z,8.648
2022-10-25T04:55:50.092Z,8.629
2022-10-25T04:56:50.123Z,8.591
2022-10-25T04:57:50.142Z,8.607
2022-10-25T04:58:50.171Z,8.546
2022-10-25T04:59:50.208Z,8.492
2022-10-25T05:00:50.236Z,8.47
2022-10-25T05:02:50.707Z,8.504
2022-10-25T05:03:50.331Z,8.501
2022-10-25T05:04:50.367Z,8.459
2022-10-25T05:05:50.406Z,8.449
2022-10-25T05:06:50.434Z,8.465
2022-10-25T05:07:50.470Z,8.461
2022-10-25T05:08:50.504Z,8.442
2022-10-25T05:09:50.531Z,8.356
2022-10-25T05:10:50.563Z,8.353
2022-10-25T05:11:50.587Z,8.353
2022-10-25T05:12:50.624Z,8.34
2022-10-25T05:13:50.650Z,8.355
2022-10-25T05:14:50.681Z,8.355
2022-10-25T05:15:50.719Z,8.37
2022-10-25T05:16:50.753Z,8.367
2022-10-25T05:17:50.783Z,8.382
2022-10-25T05:18:50.814Z,8.325
2022-10-25T05:19:50.853Z,8.34
2022-10-25T05:20:50.881Z,8.355
2022-10-25T05:21:50.908Z,8.371
2022-10-25T05:22:50.938Z,8.386
2022-10-25T05:23:50.968Z,8.417
2022-10-25T05:24:51.007Z,8.447
2022-10-25T05:25:51.032Z,8.447
2022-10-25T05:26:51.060Z,8.463
2022-10-25T05:27:51.092Z,8.463
2022-10-25T05:28:51.121Z,8.463
2022-10-25T05:29:51.149Z,8.491
2022-10-25T05:30:51.186Z,8.491
2022-10-25T05:31:51.224Z,8.491
2022-10-25T05:32:51.262Z,8.539
2022-10-25T05:33:51.296Z,8.554
2022-10-25T05:34:51.325Z,8.554
2022-10-25T05:35:51.354Z,8.583
2022-10-25T05:36:51.376Z,8.598
2022-10-25T05:37:51.420Z,8.577
2022-10-25T05:38:51.452Z,8.577
2022-10-25T05:39:51.488Z,8.591
2022-10-25T05:40:51.610Z,8.61
2022-10-25T05:41:51.554Z,8.537
2022-10-25T05:42:51.589Z,8.537
2022-10-25T05:43:51.620Z,8.537
2022-10-25T05:44:51.654Z,8.522
2022-10-25T05:45:51.685Z,8.522
2022-10-25T05:46:51.726Z,8.507
2022-10-25T05:47:51.752Z,8.583
2022-10-25T05:48:51.789Z,8.583
2022-10-25T05:49:51.823Z,8.564
2022-10-25T05:50:56.000Z,8.564
2022-10-25T05:51:51.877Z,8.564
2022-10-25T05:52:51.901Z,8.564
2022-10-25T05:53:51.932Z,8.577
2022-10-25T05:54:51.972Z,8.577
2022-10-25T05:55:52.012Z,8.606
2022-10-25T05:56:52.047Z,8.556
2022-10-25T05:57:52.078Z,8.575
2022-10-25T05:58:52.114Z,8.575
2022-10-25T05:59:52.141Z,8.525
2022-10-25T06:00:52.182Z,8.541
2022-10-25T06:01:52.356Z,8.556
2022-10-25T06:02:52.238Z,8.556
2022-10-25T06:03:52.268Z,8.613
2022-10-25T06:04:52.600Z,8.629
2022-10-25T06:05:52.332Z,8.648
2022-10-25T06:06:52.368Z,8.633
2022-10-25T06:07:52.400Z,8.617
2022-10-25T06:08:52.435Z,8.617
2022-10-25T06:09:52.500Z,8.617
2022-10-25T06:10:52.508Z,8.586
2022-10-25T06:11:52.528Z,8.586
2022-10-25T06:12:52.555Z,8.602
2022-10-25T06:13:52.594Z,8.602
2022-10-25T06:14:52.620Z,8.646
2022-10-25T06:15:52.660Z,8.661
2022-10-25T06:16:52.683Z,8.63
2022-10-25T06:17:52.709Z,8.634
2022-10-25T06:18:52.738Z,8.644
2022-10-25T06:19:52.772Z,8.657
2022-10-25T06:20:52.806Z,8.641
2022-10-25T06:21:52.838Z,8.626
2022-10-25T06:22:52.870Z,8.626
2022-10-25T06:23:52.909Z,8.626
2022-10-25T06:24:52.936Z,8.683
2022-10-25T06:25:52.969Z,8.718
2022-10-25T06:26:52.995Z,8.702
2022-10-25T06:27:53.032Z,8.687
2022-10-25T06:28:53.060Z,8.687
2022-10-25T06:29:53.111Z,8.671
2022-10-25T06:30:53.126Z,8.69
2022-10-25T06:31:53.157Z,8.69
2022-10-25T06:32:53.188Z,8.675
2022-10-25T06:33:53.217Z,8.69
2022-10-25T06:34:53.280Z,8.69
2022-10-25T06:35:53.286Z,8.69
2022-10-25T06:36:53.323Z,8.69
2022-10-25T06:37:53.353Z,8.751
2022-10-25T06:38:53.385Z,8.72
2022-10-25T06:39:53.431Z,8.705
2022-10-25T06:40:53.442Z,8.72
2022-10-25T06:41:53.468Z,8.724
2022-10-25T06:42:53.492Z,8.762
2022-10-25T06:43:53.519Z,8.765
2022-10-25T06:44:53.555Z,8.746
2022-10-25T06:45:53.586Z,8.731
2022-10-25T06:47:15.991Z,8.715
2022-10-25T06:47:53.647Z,8.775
2022-10-25T06:48:53.681Z,8.759
2022-10-25T06:49:53.706Z,8.728
2022-10-25T06:50:53.746Z,8.712
2022-10-25T06:51:53.770Z,8.776
2022-10-25T06:52:53.803Z,8.741
2022-10-25T06:53:53.838Z,8.741
2022-10-25T06:54:53.875Z,8.769
2022-10-25T06:55:53.915Z,8.833
2022-10-25T06:56:53.950Z,8.848
2022-10-25T06:57:53.978Z,8.848
2022-10-25T06:58:54.024Z,8.924
2022-10-25T06:59:54.051Z,8.924
2022-10-25T07:00:54.124Z,8.939
2022-10-25T07:01:54.228Z,9.002
2022-10-25T07:02:54.134Z,9.036
2022-10-25T07:03:54.167Z,9.052
2022-10-25T07:04:54.187Z,9.083
2022-10-25T07:05:54.216Z,9.052
2022-10-25T07:06:55.333Z,9.083
2022-10-25T07:07:54.282Z,9.067
2022-10-25T07:08:54.310Z,9.083
2022-10-25T07:09:54.340Z,9.121
2022-10-25T07:10:54.374Z,9.152
2022-10-25T07:11:54.406Z,9.146
2022-10-25T07:12:54.435Z,9.177
2022-10-25T07:13:54.471Z,9.223
2022-10-25T07:14:54.503Z,9.223
2022-10-25T07:15:54.535Z,9.296
2022-10-25T07:16:54.562Z,9.296
2022-10-25T07:17:54.585Z,9.311
2022-10-25T07:18:54.618Z,9.342
2022-10-25T07:19:54.651Z,9.346
2022-10-25T07:20:54.677Z,9.361
2022-10-25T07:21:54.709Z,9.377
2022-10-25T07:22:59.244Z,9.374
2022-10-25T07:23:54.770Z,9.359
2022-10-25T07:24:54.873Z,9.347
2022-10-25T07:25:54.836Z,9.392
2022-10-25T07:26:54.856Z,9.407
2022-10-25T07:27:54.882Z,9.464
2022-10-25T07:28:54.919Z,9.464
2022-10-25T07:29:54.947Z,9.455
2022-10-25T07:30:54.983Z,9.455
2022-10-25T07:31:55.014Z,9.47
2022-10-25T07:32:55.046Z,9.495
2022-10-25T07:33:55.077Z,9.549
2022-10-25T07:34:55.149Z,9.593
2022-10-25T07:36:06.474Z,9.593
2022-10-25T07:36:55.177Z,9.564
2022-10-25T07:37:55.197Z,9.549
2022-10-25T07:38:55.229Z,9.579
2022-10-25T07:39:55.261Z,9.61
2022-10-25T07:40:55.294Z,9.625
2022-10-25T07:41:55.329Z,9.625
2022-10-25T07:42:55.358Z,9.671
2022-10-25T07:43:55.401Z,9.656
2022-10-25T07:44:55.417Z,9.656
2022-10-25T07:45:55.453Z,9.641
2022-10-25T07:46:55.483Z,9.656
2022-10-25T07:47:55.514Z,9.641
2022-10-25T07:48:55.556Z,9.641
2022-10-25T07:49:55.583Z,9.656
2022-10-25T07:50:55.618Z,9.656
2022-10-25T07:51:55.647Z,9.637
2022-10-25T07:52:55.674Z,9.652
2022-10-25T07:53:55.703Z,9.621
2022-10-25T07:54:55.734Z,9.637
2022-10-25T07:55:55.771Z,9.637
2022-10-25T07:56:55.792Z,9.652
2022-10-25T07:57:55.830Z,9.637
2022-10-25T07:58:55.861Z,9.621
2022-10-25T07:59:55.890Z,9.641
2022-10-25T08:00:55.924Z,9.641
2022-10-25T08:01:55.961Z,9.713
2022-10-25T08:02:56.037Z,9.759
2022-10-25T08:03:56.027Z,9.793
2022-10-25T08:04:56.058Z,9.717
2022-10-25T08:05:56.094Z,9.702
2022-10-25T08:06:56.122Z,9.671
2022-10-25T08:07:56.151Z,9.671
2022-10-25T08:08:56.182Z,9.702
2022-10-25T08:09:56.212Z,9.702
2022-10-25T08:10:56.242Z,9.702
2022-10-25T08:11:56.269Z,9.671
2022-10-25T08:12:56.304Z,9.686
2022-10-25T08:13:56.338Z,9.686
2022-10-25T08:14:56.372Z,9.686
2022-10-25T08:15:56.408Z,9.717
2022-10-25T08:16:56.429Z,9.702
2022-10-25T08:17:56.454Z,9.671
2022-10-25T08:18:56.482Z,9.64
2022-10-25T08:19:56.513Z,9.61
2022-10-25T08:21:02.340Z,9.625
2022-10-25T08:21:56.566Z,9.64
2022-10-25T08:22:56.597Z,9.61
2022-10-25T08:23:56.622Z,9.61
2022-10-25T08:24:56.658Z,9.629
2022-10-25T08:25:56.683Z,9.644
2022-10-25T08:26:56.719Z,9.774
2022-10-25T08:27:56.751Z,9.774
2022-10-25T08:28:56.780Z,9.793
2022-10-25T08:29:56.806Z,9.793
2022-10-25T08:30:56.855Z,9.793
2022-10-25T08:31:56.877Z,9.793
2022-10-25T08:32:58.707Z,9.843
2022-10-25T08:33:57.050Z,9.828
2022-10-25T08:34:56.952Z,9.766
2022-10-25T08:35:56.978Z,9.797
2022-10-25T08:36:57.006Z,9.782
2022-10-25T08:37:57.034Z,9.751
2022-10-25T08:38:57.065Z,9.751
2022-10-25T08:39:57.109Z,9.72
2022-10-25T08:40:57.130Z,9.735
2022-10-25T08:41:57.159Z,9.764
2022-10-25T08:42:57.188Z,9.795
2022-10-25T08:43:57.290Z,9.855
2022-10-25T08:44:57.245Z,9.937
2022-10-25T08:45:57.280Z,9.918
2022-10-25T08:46:57.307Z,10
2022-10-25T08:47:57.334Z,10.07
2022-10-25T08:48:57.364Z,10.08
2022-10-25T08:49:57.399Z,10.14
2022-10-25T08:50:57.427Z,10.17
2022-10-25T08:51:57.462Z,10.2
2022-10-25T08:52:57.486Z,10.09
2022-10-25T08:53:57.520Z,10.05
2022-10-25T08:54:59.282Z,10.04
2022-10-25T08:56:15.164Z,10.07
2022-10-25T08:57:14.602Z,9.96
2022-10-25T08:57:57.641Z,9.967
2022-10-25T08:58:57.679Z,9.989
2022-10-25T08:59:57.708Z,9.878
2022-10-25T09:00:57.776Z,9.881
2022-10-25T09:01:57.899Z,9.846
2022-10-25T09:02:57.795Z,9.862
2022-10-25T09:03:57.830Z,9.846
2022-10-25T09:04:57.858Z,9.871
2022-10-25T09:05:57.890Z,9.96
2022-10-25T09:06:57.924Z,9.944
2022-10-25T09:07:57.961Z,9.88
2022-10-25T09:08:57.979Z,9.848
2022-10-25T09:09:58.005Z,9.835
2022-10-25T09:10:58.050Z,9.873
2022-10-25T09:11:58.065Z,9.959
2022-10-25T09:12:58.089Z,9.959
2022-10-25T09:13:58.126Z,10
2022-10-25T09:14:58.152Z,9.923
2022-10-25T09:15:58.179Z,9.792
2022-10-25T09:16:58.212Z,9.809
2022-10-25T09:17:58.241Z,9.84
2022-10-25T09:18:58.276Z,9.902
2022-10-25T09:19:58.314Z,9.878
2022-10-25T09:20:58.351Z,9.978
2022-10-25T09:21:58.386Z,9.962
2022-10-25T09:22:58.416Z,9.942
2022-10-25T09:23:58.445Z,10.01
2022-10-25T09:24:58.477Z,10.16
2022-10-25T09:25:58.513Z,10.15
2022-10-25T09:26:58.544Z,10.15
2022-10-25T09:27:58.578Z,10.13
2022-10-25T09:28:58.606Z,10.17
2022-10-25T09:30:00.490Z,10.23
2022-10-25T09:30:58.672Z,10.2
2022-10-25T09:31:58.706Z,10.22
2022-10-25T09:32:58.730Z,10.35
2022-10-25T09:34:01.510Z,10.32
2022-10-25T09:34:58.794Z,10.33
2022-10-25T09:35:58.831Z,10.35
2022-10-25T09:36:58.855Z,10.33
2022-10-25T09:37:58.885Z,10.47
2022-10-25T09:38:58.916Z,10.46
2022-10-25T09:39:58.944Z,10.46
2022-10-25T09:40:58.977Z,10.53
2022-10-25T09:41:59.014Z,10.5
2022-10-25T09:42:59.087Z,10.44
2022-10-25T09:43:59.085Z,10.43
2022-10-25T09:44:59.109Z,10.39
2022-10-25T09:45:59.137Z,10.34
2022-10-25T09:46:59.166Z,10.31
2022-10-25T09:47:59.201Z,10.28
2022-10-25T09:48:59.235Z,10.24
2022-10-25T09:49:59.275Z,10.27
2022-10-25T09:50:59.308Z,10.25
2022-10-25T09:51:59.350Z,10.29
2022-10-25T09:53:59.420Z,10.31
2022-10-25T09:54:59.443Z,10.33
2022-10-25T09:55:59.470Z,10.34
2022-10-25T09:56:59.498Z,10.33
2022-10-25T09:57:59.530Z,10.33
2022-10-25T09:58:59.564Z,10.24
2022-10-25T09:59:59.596Z,10.2
2022-10-25T10:00:59.631Z,10.11
2022-10-25T10:01:59.875Z,10.05
2022-10-25T10:02:59.765Z,9.995
2022-10-25T10:04:00.092Z,10.08
2022-10-25T10:04:59.767Z,10.07
2022-10-25T10:05:59.802Z,10.12
2022-10-25T10:06:59.833Z,10.05
2022-10-25T10:07:59.861Z,10.14
2022-10-25T10:08:59.892Z,10.06
2022-10-25T10:09:59.916Z,10.02
2022-10-25T10:10:59.948Z,10.02
2022-10-25T10:11:59.980Z,10.07
2022-10-25T10:13:00.009Z,10
2022-10-25T10:14:00.036Z,9.98
2022-10-25T10:15:00.066Z,10.03
2022-10-25T10:16:00.112Z,9.98
2022-10-25T10:17:00.129Z,10.01
2022-10-25T10:18:00.146Z,10.08
2022-10-25T10:19:00.179Z,10.01
2022-10-25T10:20:00.210Z,10.07
2022-10-25T10:21:00.238Z,10.01
2022-10-25T10:22:00.267Z,9.964
2022-10-25T10:23:02.730Z,9.999
2022-10-25T10:24:00.330Z,9.982
2022-10-25T10:25:00.360Z,10.01
2022-10-25T10:26:00.402Z,9.94
2022-10-25T10:27:00.422Z,9.923
2022-10-25T10:28:00.459Z,9.872
2022-10-25T10:29:00.524Z,9.904
2022-10-25T10:30:00.520Z,9.975
2022-10-25T10:31:00.547Z,9.956
2022-10-25T10:32:00.570Z,9.975
2022-10-25T10:33:00.605Z,9.927
2022-10-25T10:34:00.660Z,9.944
2022-10-25T10:35:00.665Z,9.961
2022-10-25T10:36:00.697Z,9.944
2022-10-25T10:37:00.731Z,9.927
2022-10-25T10:38:00.780Z,9.912
2022-10-25T10:39:00.801Z,9.929
2022-10-25T10:40:00.825Z,9.946
2022-10-25T10:41:00.853Z,9.95
2022-10-25T10:42:00.884Z,9.97
2022-10-25T10:43:00.928Z,9.97
2022-10-25T10:44:00.942Z,9.936
2022-10-25T10:45:00.964Z,9.934
2022-10-25T10:46:00.997Z,9.885
2022-10-25T10:47:01.039Z,9.867
2022-10-25T10:48:01.067Z,9.936
2022-10-25T10:49:01.095Z,9.867
2022-10-25T10:50:01.143Z,9.833
2022-10-25T10:51:01.161Z,9.844
2022-10-25T10:52:01.186Z,9.916
2022-10-25T10:53:01.228Z,9.951
2022-10-25T10:54:01.260Z,9.944
2022-10-25T10:55:01.278Z,10
2022-10-25T10:56:01.313Z,9.933
2022-10-25T10:57:01.344Z,9.898
2022-10-25T10:58:01.372Z,9.829
2022-10-25T10:59:01.408Z,9.857
2022-10-25T11:00:01.445Z,9.869
2022-10-25T11:01:01.581Z,9.892
2022-10-25T11:02:01.566Z,9.822
2022-10-25T11:03:01.518Z,9.893
2022-10-25T11:04:01.545Z,9.912
2022-10-25T11:05:01.589Z,9.901
2022-10-25T11:06:01.599Z,9.982
2022-10-25T11:07:01.627Z,10.05
2022-10-25T11:08:01.658Z,10.02
2022-10-25T11:09:01.693Z,9.988
2022-10-25T11:10:01.732Z,10.08
2022-10-25T11:11:01.762Z,10.06
2022-10-25T11:12:01.788Z,9.964
2022-10-25T11:13:01.816Z,9.949
2022-10-25T11:14:01.857Z,9.888
2022-10-25T11:15:01.888Z,9.898
2022-10-25T11:16:01.922Z,9.88
2022-10-25T11:17:01.947Z,9.862
2022-10-25T11:18:01.982Z,9.969
2022-10-25T11:19:01.991Z,9.826
2022-10-25T11:20:02.023Z,9.7
2022-10-25T11:21:02.055Z,9.627
2022-10-25T11:22:02.091Z,9.7
2022-10-25T11:23:04.434Z,9.819
2022-10-25T11:24:02.165Z,9.819
2022-10-25T11:25:02.192Z,9.865
2022-10-25T11:26:02.223Z,9.811
2022-10-25T11:27:02.251Z,9.684
2022-10-25T11:28:02.286Z,9.702
2022-10-25T11:29:02.316Z,9.774
2022-10-25T11:30:02.346Z,9.858
2022-10-25T11:31:02.379Z,9.876
2022-10-25T11:32:02.413Z,10.05
2022-10-25T11:33:02.454Z,10.04
2022-10-25T11:34:03.852Z,9.823
2022-10-25T11:35:02.522Z,10.07
2022-10-25T11:36:02.562Z,10.06
2022-10-25T11:37:02.583Z,10.13
2022-10-25T11:38:02.612Z,10.31
2022-10-25T11:39:02.641Z,10.06
2022-10-25T11:40:02.671Z,10
2022-10-25T11:41:02.704Z,9.911
2022-10-25T11:42:02.720Z,9.856
2022-10-25T11:43:02.759Z,9.875
2022-10-25T11:44:02.780Z,9.949
2022-10-25T11:45:02.832Z,9.93
2022-10-25T11:46:02.831Z,9.986
2022-10-25T11:47:02.862Z,9.893
2022-10-25T11:48:02.893Z,9.986
2022-10-25T11:49:02.926Z,9.967
2022-10-25T11:50:02.959Z,9.959
2022-10-25T11:51:02.988Z,9.958
2022-10-25T11:52:03.065Z,10.11
2022-10-25T11:53:03.051Z,10.12
2022-10-25T11:54:03.081Z,10.19
2022-10-25T11:55:03.117Z,10.14
2022-10-25T11:56:03.137Z,10.16
2022-10-25T11:57:03.166Z,9.997
2022-10-25T11:58:05.684Z,10.02
2022-10-25T11:59:03.226Z,10.03
2022-10-25T12:00:03.253Z,9.997
2022-10-25T12:01:03.346Z,10.03
2022-10-25T12:02:03.329Z,10.07
2022-10-25T12:03:03.382Z,10.16
2022-10-25T12:04:03.381Z,10.13
2022-10-25T12:05:03.416Z,9.959
2022-10-25T12:06:03.454Z,9.959
2022-10-25T12:07:03.477Z,9.884
2022-10-25T12:08:03.503Z,9.884
2022-10-25T12:09:03.543Z,9.902
2022-10-25T12:10:03.562Z,9.958
2022-10-25T12:11:03.599Z,10.07
2022-10-25T12:12:03.624Z,10.05
2022-10-25T12:13:03.658Z,10.16
2022-10-25T12:14:03.685Z,10.18
2022-10-25T12:15:03.721Z,10.24
2022-10-25T12:16:03.760Z,10.13
2022-10-25T12:17:03.786Z,10.03
2022-10-25T12:18:03.820Z,10.01
2022-10-25T12:19:03.843Z,10.13
2022-10-25T12:20:03.874Z,10.01
2022-10-25T12:21:03.912Z,9.778
2022-10-25T12:22:03.948Z,9.702
2022-10-25T12:23:03.979Z,9.666
2022-10-25T12:24:04.004Z,9.685
2022-10-25T12:25:04.045Z,9.612
2022-10-25T12:26:04.064Z,9.669
2022-10-25T12:27:04.093Z,9.716
2022-10-25T12:28:04.120Z,9.773
2022-10-25T12:29:04.148Z,9.829
2022-10-25T12:30:04.178Z,9.726
2022-10-25T12:31:04.205Z,9.68
2022-10-25T12:32:04.237Z,9.791
2022-10-25T12:33:04.264Z,9.772
2022-10-25T12:34:04.294Z,9.781
2022-10-25T12:35:04.318Z,9.844
2022-10-25T12:36:04.343Z,9.844
2022-10-25T12:37:04.379Z,9.863
2022-10-25T12:38:04.406Z,9.844
2022-10-25T12:39:04.444Z,9.844
2022-10-25T12:40:04.478Z,9.899
2022-10-25T12:41:04.507Z,9.899
2022-10-25T12:42:04.545Z,10
2022-10-25T12:43:04.569Z,10.06
2022-10-25T12:44:04.594Z,9.982
2022-10-25T12:45:04.627Z,10.07
2022-10-25T12:46:04.665Z,10.09
2022-10-25T12:47:04.710Z,9.966
2022-10-25T12:48:04.727Z,10.04
2022-10-25T12:49:04.757Z,9.911
2022-10-25T12:50:04.820Z,9.911
2022-10-25T12:51:04.826Z,9.984
2022-10-25T12:52:04.856Z,10.08
2022-10-25T12:53:04.887Z,10.16
2022-10-25T12:54:04.913Z,10.08
2022-10-25T12:55:04.938Z,10.05
2022-10-25T12:56:04.961Z,9.903
2022-10-25T12:57:04.994Z,9.922
2022-10-25T12:58:05.019Z,9.996
2022-10-25T12:59:05.050Z,9.903
2022-10-25T13:00:05.208Z,9.866
2022-10-25T13:01:05.173Z,9.894